Time;durP1;ratioP1;P1;durP2;ratioP2;P2;SDS_P1;SDS_P2;PMS_P1;PMS_P2;Temp;Humidity;BMP_temperature;BMP_pressure;BME280_temperature;BME280_humidity;BME280_pressure;Samples;Min_cycle;Max_cycle;Signal;HPM_P1;HPM_P2
2023/03/22 00:01:22;;;;;;;24.70;15.40;;;;;;;7.28;94.52;100954.92;109597;1245;61995;-75
2023/03/22 00:03:51;;;;;;;28.30;17.10;;;;;;;7.34;93.96;100954.63;109604;1242;60024;-77
2023/03/22 00:06:20;;;;;;;30.70;17.90;;;;;;;7.29;93.82;100959.05;109612;1242;62493;-73
2023/03/22 00:08:52;;;;;;;20.80;12.80;;;;;;;7.28;92.24;100954.91;109678;1243;57776;-76
2023/03/22 00:11:24;;;;;;;24.30;15.90;;;;;;;7.26;93.41;100958.54;109616;1243;61168;-75
2023/03/22 00:13:53;;;;;;;28.20;16.30;;;;;;;7.06;95.14;100956.46;109575;1244;62940;-75
2023/03/22 00:16:22;;;;;;;27.60;16.70;;;;;;;6.99;94.86;100954.27;109769;1243;61435;-75
2023/03/22 00:18:51;;;;;;;27.10;17.30;;;;;;;6.93;95.89;100958.23;109721;1242;59959;-76
2023/03/22 00:21:20;;;;;;;26.30;16.20;;;;;;;6.91;96.58;100961.27;109676;1243;63250;-76
2023/03/22 00:23:49;;;;;;;25.70;16.50;;;;;;;6.93;96.79;100960.44;109638;1244;57633;-77
2023/03/22 00:26:18;;;;;;;27.10;16.40;;;;;;;6.98;96.47;100958.64;109628;1243;57554;-76
2023/03/22 00:28:47;;;;;;;26.10;16.40;;;;;;;7.05;95.66;100959.51;109638;1243;62981;-75
2023/03/22 00:31:16;;;;;;;27.10;16.00;;;;;;;7.14;95.48;100958.66;109547;1243;72259;-75
2023/03/22 00:33:45;;;;;;;28.80;15.80;;;;;;;7.18;94.13;100958.79;109575;1244;69660;-75
2023/03/22 00:36:14;;;;;;;23.10;14.50;;;;;;;7.20;94.08;100955.04;109590;1243;74299;-75
2023/03/22 00:38:43;;;;;;;24.80;14.50;;;;;;;7.16;93.17;100953.52;109423;1245;62836;-74
2023/03/22 00:41:21;;;;;;;23.80;15.50;;;;;;;7.07;93.52;100953.14;109515;1243;58107;-75
2023/03/22 00:43:51;;;;;;;23.80;15.20;;;;;;;6.94;96.64;100953.48;109628;1243;63906;-75
2023/03/22 00:46:20;;;;;;;24.50;15.90;;;;;;;6.87;97.41;100954.71;109506;1243;72134;-76
2023/03/22 00:48:49;;;;;;;25.90;15.70;;;;;;;6.91;97.01;100952.60;109449;1243;72028;-74
2023/03/22 00:51:18;;;;;;;25.50;16.70;;;;;;;6.89;96.84;100953.23;109477;1243;63708;-74
2023/03/22 00:53:52;;;;;;;24.40;16.10;;;;;;;6.85;96.48;100953.62;109384;1248;57679;-76
2023/03/22 00:56:24;;;;;;;25.90;16.20;;;;;;;6.87;96.20;100953.17;109565;1245;57813;-76
2023/03/22 00:59:00;;;;;;;23.50;15.50;;;;;;;6.82;95.35;100952.54;109560;1245;62159;-73
2023/03/22 01:01:29;;;;;;;24.40;15.70;;;;;;;6.79;95.66;100957.23;109602;1245;61122;-73
2023/03/22 01:03:58;;;;;;;25.00;16.40;;;;;;;6.70;96.64;100958.75;109475;1243;60186;-74
2023/03/22 01:06:27;;;;;;;22.50;15.30;;;;;;;6.64;96.67;100957.99;109448;1243;63392;-73
2023/03/22 01:08:56;;;;;;;26.70;16.00;;;;;;;6.65;98.59;100958.99;109483;1247;57612;-74
2023/03/22 01:11:25;;;;;;;25.00;15.90;;;;;;;6.73;97.49;100954.92;109554;1244;61087;-76
2023/03/22 01:13:54;;;;;;;26.30;16.30;;;;;;;6.76;96.62;100956.17;109315;1244;73149;-75
2023/03/22 01:16:25;;;;;;;23.00;15.70;;;;;;;6.76;96.14;100950.82;109391;1244;71895;-76
2023/03/22 01:18:54;;;;;;;25.50;15.90;;;;;;;6.78;95.99;100955.02;109474;1244;69142;-75
2023/03/22 01:21:23;;;;;;;26.30;16.10;;;;;;;6.80;95.74;100954.73;109374;1243;73203;-74
2023/03/22 01:23:52;;;;;;;24.20;16.10;;;;;;;6.70;95.37;100954.40;109457;1244;62651;-72
2023/03/22 01:26:21;;;;;;;25.70;15.20;;;;;;;6.56;94.77;100957.91;109508;1243;57698;-73
2023/03/22 01:28:50;;;;;;;25.50;15.40;;;;;;;6.39;95.66;100955.16;109445;1248;62422;-74
2023/03/22 01:31:19;;;;;;;27.60;16.50;;;;;;;6.22;96.69;100957.73;109579;1244;61647;-72
2023/03/22 01:33:48;;;;;;;24.80;15.40;;;;;;;6.11;96.48;100960.55;109572;1245;60026;-74
2023/03/22 01:36:17;;;;;;;29.90;17.50;;;;;;;6.04;97.15;100959.15;109527;1243;73727;-74
2023/03/22 01:38:46;;;;;;;26.90;16.70;;;;;;;5.94;96.69;100958.94;109463;1245;57368;-74
2023/03/22 01:41:16;;;;;;;24.30;16.10;;;;;;;5.81;96.73;100952.49;109486;1247;57212;-77
2023/03/22 01:44:05;;;;;;;25.10;15.90;;;;;;;5.67;95.88;100948.67;109466;1244;63151;-74
2023/03/22 01:46:34;;;;;;;27.10;16.70;;;;;;;5.56;96.62;100948.48;109463;1244;70569;-75
2023/03/22 01:49:05;;;;;;;28.50;17.30;;;;;;;5.51;97.10;100951.68;109390;1243;60416;-74
2023/03/22 01:51:34;;;;;;;28.90;17.10;;;;;;;5.47;97.87;100949.05;109433;1247;63253;-74
2023/03/22 01:54:47;;;;;;;28.20;18.10;;;;;;;5.42;97.70;100949.86;109436;1246;57153;-74
2023/03/22 01:57:41;;;;;;;28.60;18.00;;;;;;;5.31;99.20;100950.87;109386;1243;61003;-74
2023/03/22 02:00:17;;;;;;;32.30;18.90;;;;;;;5.28;99.76;100948.59;109477;1243;74635;-74
2023/03/22 02:03:06;;;;;;;33.30;20.60;;;;;;;5.35;99.86;100947.74;109422;1243;72783;-76
2023/03/22 02:05:42;;;;;;;33.80;20.30;;;;;;;5.44;99.61;100951.47;109503;1245;60634;-76
2023/03/22 02:08:13;;;;;;;36.20;19.40;;;;;;;5.45;98.39;100948.15;109453;1243;72977;-76
2023/03/22 02:10:53;;;;;;;36.10;19.60;;;;;;;5.48;98.06;100949.23;109542;1245;63330;-76
2023/03/22 02:13:38;;;;;;;27.40;17.30;;;;;;;5.47;96.85;100949.64;109431;1244;57200;-75
2023/03/22 02:16:51;;;;;;;26.50;16.10;;;;;;;5.47;96.54;100946.14;109434;1246;62071;-77
2023/03/22 02:19:50;;;;;;;24.70;15.70;;;;;;;5.38;95.67;100948.67;109436;1243;72199;-73
2023/03/22 02:23:20;;;;;;;25.70;16.60;;;;;;;5.34;96.69;100946.42;109307;1247;60380;-73
2023/03/22 02:26:14;;;;;;;25.30;15.30;;;;;;;5.30;96.82;100953.52;109022;1243;73302;-75
2023/03/22 02:28:55;;;;;;;23.90;15.80;;;;;;;5.30;96.53;100954.90;109062;1246;57819;-80
2023/03/22 02:32:12;;;;;;;24.60;16.00;;;;;;;5.38;96.94;100961.27;109344;1244;57769;-80
2023/03/22 02:35:20;;;;;;;24.70;15.90;;;;;;;5.50;96.51;100966.39;109258;1244;73550;-80
2023/03/22 02:38:25;;;;;;;31.20;17.20;;;;;;;5.44;95.84;100967.34;109251;1243;71706;-77
2023/03/22 02:41:03;;;;;;;26.10;16.80;;;;;;;5.28;95.88;100964.30;109304;1247;60225;-75
2023/03/22 02:44:04;;;;;;;25.90;16.60;;;;;;;5.26;97.61;100969.39;109247;1243;73109;-75
2023/03/22 02:47:23;;;;;;;28.00;16.90;;;;;;;5.22;97.89;100973.21;108871;1253;62491;-74
2023/03/22 02:50:10;;;;;;;26.90;16.20;;;;;;;5.22;97.65;100972.17;109262;1247;61599;-78
2023/03/22 02:53:08;;;;;;;28.30;16.50;;;;;;;5.25;98.11;100978.95;109281;1244;72357;-78
2023/03/22 02:56:07;;;;;;;31.60;18.70;;;;;;;5.30;98.21;100977.55;109154;1248;62011;-75
2023/03/22 02:58:44;;;;;;;26.50;18.00;;;;;;;5.14;96.27;100974.45;109381;1245;59230;-76
2023/03/22 03:01:51;;;;;;;27.10;16.30;;;;;;;4.97;96.94;100973.14;109312;1245;63245;-77
2023/03/22 03:04:35;;;;;;;24.90;15.90;;;;;;;4.94;97.57;100972.75;109697;1245;62054;-79
2023/03/22 03:07:08;;;;;;;26.70;16.90;;;;;;;5.01;98.52;100978.84;109611;1245;57103;-78
2023/03/22 03:09:39;;;;;;;;;;;;;;;4.99;98.53;100978.77;109236;1246;72668;-74
2023/03/22 03:12:20;;;;;;;24.80;15.90;;;;;;;4.88;98.58;100979.91;109310;1247;72922;-75
2023/03/22 03:14:49;;;;;;;31.50;16.90;;;;;;;4.78;98.11;100981.77;109228;1248;60749;-73
2023/03/22 03:17:24;;;;;;;24.10;16.40;;;;;;;4.66;97.96;100983.48;109311;1247;63282;-75
2023/03/22 03:20:29;;;;;;;25.20;16.30;;;;;;;4.59;98.10;100982.61;109297;1247;57055;-74
2023/03/22 03:23:23;;;;;;;27.70;16.20;;;;;;;4.50;97.92;100983.65;109262;1248;61618;-74
2023/03/22 03:26:28;;;;;;;24.90;16.20;;;;;;;4.42;98.47;100981.59;109394;1243;73580;-78
2023/03/22 03:29:11;;;;;;;28.20;17.40;;;;;;;4.36;98.83;100984.09;109332;1247;62468;-79
2023/03/22 03:32:11;;;;;;;29.10;16.70;;;;;;;4.29;99.76;100988.52;109433;1244;60323;-79
2023/03/22 03:34:54;;;;;;;33.70;19.10;;;;;;;4.31;100.00;100989.48;109415;1247;63379;-79
2023/03/22 03:37:38;;;;;;;29.30;18.20;;;;;;;4.24;100.00;100992.34;109308;1245;61967;-77
2023/03/22 03:40:19;;;;;;;36.00;20.30;;;;;;;4.20;100.00;100995.80;109202;1244;60784;-78
2023/03/22 03:42:52;;;;;;;31.30;18.20;;;;;;;4.15;100.00;100996.69;109239;1243;74176;-80
2023/03/22 03:45:22;;;;;;;34.70;19.50;;;;;;;4.16;99.88;100996.30;109422;1244;71605;-77
2023/03/22 03:47:56;;;;;;;34.50;20.20;;;;;;;4.28;99.96;101000.27;109524;1243;70902;-75
2023/03/22 03:50:26;;;;;;;33.20;19.80;;;;;;;4.26;99.27;101000.05;109336;1244;63137;-79
2023/03/22 03:52:56;;;;;;;36.20;19.60;;;;;;;4.19;99.43;101003.23;109413;1247;57867;-77
2023/03/22 03:55:26;;;;;;;34.60;20.00;;;;;;;4.11;98.43;101009.44;109594;1244;60426;-79
2023/03/22 03:57:55;;;;;;;34.40;19.70;;;;;;;4.14;99.06;101006.39;109571;1244;62617;-77
2023/03/22 04:00:24;;;;;;;32.60;17.70;;;;;;;4.09;98.53;101008.67;109606;1244;60933;-76
2023/03/22 04:03:12;;;;;;;30.20;17.80;;;;;;;4.17;98.82;101006.95;109530;1244;70474;-74
2023/03/22 04:06:27;;;;;;;34.80;19.10;;;;;;;4.09;98.35;101005.21;109369;1245;74483;-77
2023/03/22 04:09:00;;;;;;;31.60;18.80;;;;;;;4.11;98.41;101008.05;109441;1244;62648;-77
2023/03/22 04:11:31;;;;;;;29.10;17.00;;;;;;;4.02;98.32;101011.36;109552;1243;57737;-80
2023/03/22 04:14:01;;;;;;;32.80;18.00;;;;;;;3.94;98.64;101011.48;109557;1243;70646;-79
2023/03/22 04:16:30;;;;;;;30.40;18.30;;;;;;;3.90;99.37;101011.48;109556;1244;61643;-79
2023/03/22 04:18:59;;;;;;;31.20;19.50;;;;;;;3.84;99.97;101012.60;109751;1244;60174;-79
2023/03/22 04:21:28;;;;;;;30.90;18.40;;;;;;;3.80;100.00;101017.56;109571;1244;62554;-78
2023/03/22 04:23:58;;;;;;;34.00;19.90;;;;;;;3.83;100.00;101017.11;109553;1245;57143;-79
2023/03/22 04:26:29;;;;;;;35.80;19.60;;;;;;;3.87;100.00;101015.77;109369;1244;60204;-82
2023/03/22 04:29:09;;;;;;;32.20;19.20;;;;;;;3.94;100.00;101021.83;109457;1243;73609;-82
2023/03/22 04:31:39;;;;;;;33.10;19.70;;;;;;;4.06;99.92;101024.45;109464;1244;61965;-78
2023/03/22 04:35:01;;;;;;;31.80;19.00;;;;;;;3.96;98.93;101030.55;109513;1243;69676;-79
2023/03/22 04:37:33;;;;;;;36.90;19.50;;;;;;;3.91;99.21;101034.04;109412;1244;72486;-74
2023/03/22 04:40:15;;;;;;;33.50;18.40;;;;;;;3.85;98.97;101036.48;109483;1247;57673;-74
2023/03/22 04:42:50;;;;;;;31.80;20.50;;;;;;;3.81;99.82;101043.39;109485;1243;57219;-76
2023/03/22 04:45:31;;;;;;;32.40;19.50;;;;;;;4.01;99.87;101043.96;109486;1243;73928;-84
2023/03/22 04:48:01;;;;;;;35.00;22.00;;;;;;;4.08;99.68;101045.73;109357;1243;61437;-80
2023/03/22 04:50:30;;;;;;;32.80;21.50;;;;;;;4.07;99.88;101045.63;109515;1243;60003;-78
2023/03/22 04:53:00;;;;;;;32.10;20.60;;;;;;;4.01;99.98;101047.58;109600;1244;73295;-81
2023/03/22 04:55:33;;;;;;;36.60;21.70;;;;;;;3.96;99.96;101049.33;109463;1246;60469;-77
2023/03/22 04:58:02;;;;;;;52.10;30.70;;;;;;;3.91;99.74;101047.10;109445;1244;60722;-77
2023/03/22 05:00:30;;;;;;;37.80;23.70;;;;;;;3.87;99.67;101051.41;109601;1244;74408;-81
2023/03/22 05:03:00;;;;;;;41.20;22.20;;;;;;;3.84;99.97;101050.16;109456;1244;71573;-77
2023/03/22 05:05:36;;;;;;;45.70;25.00;;;;;;;3.85;99.96;101051.31;109591;1243;60986;-76
2023/03/22 05:08:13;;;;;;;34.70;22.20;;;;;;;3.87;99.71;101055.21;109510;1243;63294;-76
2023/03/22 05:10:41;;;;;;;35.20;20.70;;;;;;;3.91;100.00;101057.63;109455;1245;61258;-80
2023/03/22 05:13:10;;;;;;;38.40;23.50;;;;;;;3.95;100.00;101057.47;109517;1243;57409;-83
2023/03/22 05:15:44;;;;;;;41.50;23.50;;;;;;;4.07;100.00;101063.02;109569;1243;63564;-80
2023/03/22 05:18:14;;;;;;;44.30;23.80;;;;;;;4.19;100.00;101073.08;109428;1244;60937;-78
2023/03/22 05:20:44;;;;;;;44.70;22.60;;;;;;;4.25;100.00;101073.67;109409;1244;59184;-78
2023/03/22 05:23:19;;;;;;;43.00;24.60;;;;;;;4.36;100.00;101072.71;109418;1243;74289;-76
2023/03/22 05:25:53;;;;;;;41.50;24.20;;;;;;;4.41;100.00;101072.69;109406;1245;57226;-77
2023/03/22 05:28:21;;;;;;;44.60;23.50;;;;;;;4.50;100.00;101078.69;109476;1243;60469;-79
2023/03/22 05:31:40;;;;;;;41.80;23.70;;;;;;;4.73;100.00;101084.66;109493;1243;72247;-77
2023/03/22 05:34:09;;;;;;;52.50;28.50;;;;;;;4.85;100.00;101086.38;109531;1244;72644;-79
2023/03/22 05:36:38;;;;;;;56.40;29.60;;;;;;;4.88;99.94;101083.84;109352;1244;60029;-79
2023/03/22 05:39:53;;;;;;;44.40;25.40;;;;;;;4.99;99.81;101083.54;109407;1243;74222;-77
2023/03/22 05:42:25;;;;;;;51.70;27.30;;;;;;;5.25;99.20;101083.93;109348;1243;63346;-77
2023/03/22 05:44:55;;;;;;;56.20;26.70;;;;;;;5.51;98.25;101088.33;109284;1243;61240;-77
2023/03/22 05:47:24;;;;;;;45.40;24.60;;;;;;;5.74;98.09;101090.52;109334;1243;63462;-77
2023/03/22 05:50:18;;;;;;;48.60;25.60;;;;;;;5.97;96.91;101089.66;109494;1243;61693;-78
2023/03/22 05:52:50;;;;;;;48.20;26.20;;;;;;;6.07;96.09;101092.11;109445;1244;69953;-79
2023/03/22 05:55:34;;;;;;;46.40;24.00;;;;;;;6.17;96.37;101089.60;109403;1243;62912;-76
2023/03/22 05:58:04;;;;;;;43.50;22.80;;;;;;;6.34;96.30;101094.63;109410;1247;62860;-78
2023/03/22 06:00:35;;;;;;;42.80;23.60;;;;;;;6.47;95.66;101097.66;109316;1243;57609;-80
2023/03/22 06:03:39;;;;;;;48.80;23.70;;;;;;;6.59;95.70;101101.73;109549;1243;73620;-76
2023/03/22 06:06:14;;;;;;;39.20;23.80;;;;;;;6.67;95.64;101103.21;109480;1248;72278;-77
2023/03/22 06:08:49;;;;;;;44.80;24.60;;;;;;;6.68;96.04;101102.31;109376;1245;70900;-79
2023/03/22 06:11:18;;;;;;;42.30;23.90;;;;;;;6.84;96.11;101105.52;109535;1244;73391;-77
2023/03/22 06:13:47;;;;;;;41.00;24.10;;;;;;;6.97;95.44;101104.14;109423;1247;57669;-78
2023/03/22 06:16:17;;;;;;;44.80;22.80;;;;;;;7.13;95.24;101105.21;109431;1244;57753;-77
2023/03/22 06:18:46;;;;;;;50.00;24.00;;;;;;;7.25;94.69;101107.55;109508;1243;62936;-76
2023/03/22 06:21:15;;;;;;;40.30;23.20;;;;;;;7.39;93.31;101111.48;109452;1244;72197;-77
2023/03/22 06:23:44;;;;;;;46.00;22.60;;;;;;;7.49;91.92;101110.80;109428;1244;61638;-76
2023/03/22 06:26:13;;;;;;;43.50;23.20;;;;;;;7.53;91.70;101114.20;109323;1243;62426;-77
2023/03/22 06:28:42;;;;;;;43.70;23.50;;;;;;;7.49;92.12;101118.23;109265;1245;57718;-78
2023/03/22 06:31:11;;;;;;;39.50;24.20;;;;;;;7.49;92.73;101121.39;109284;1244;60344;-76
2023/03/22 06:33:49;;;;;;;48.80;24.50;;;;;;;7.61;92.26;101122.31;109307;1246;63800;-80
2023/03/22 06:36:26;;;;;;;49.40;25.90;;;;;;;7.54;93.26;101126.84;109298;1243;62043;-80
2023/03/22 06:39:12;;;;;;;45.30;26.40;;;;;;;7.45;94.16;101130.92;109280;1243;61241;-78
2023/03/22 06:41:44;;;;;;;46.10;26.20;;;;;;;7.56;94.09;101131.23;109453;1244;73038;-80
2023/03/22 06:44:14;;;;;;;47.70;25.70;;;;;;;7.64;93.49;101135.97;109545;1244;61438;-80
2023/03/22 06:47:29;;;;;;;40.90;23.90;;;;;;;7.87;92.52;101134.94;109391;1242;57466;-81
2023/03/22 06:50:01;;;;;;;45.40;24.60;;;;;;;7.92;91.98;101133.80;109591;1244;72425;-82
2023/03/22 06:52:49;;;;;;;40.30;23.70;;;;;;;7.97;91.77;101134.38;109493;1241;71813;-80
2023/03/22 06:55:18;;;;;;;43.20;24.90;;;;;;;8.00;91.62;101138.05;109571;1241;60712;-79
2023/03/22 06:57:47;;;;;;;39.30;22.80;;;;;;;8.02;91.78;101142.45;109554;1241;62509;-81
2023/03/22 07:00:16;;;;;;;39.20;23.60;;;;;;;8.09;91.48;101148.65;109564;1245;62892;-81
2023/03/22 07:02:45;;;;;;;42.20;25.50;;;;;;;8.06;91.88;101150.17;109623;1244;57253;-80
2023/03/22 07:05:23;;;;;;;44.80;25.80;;;;;;;8.12;92.30;101149.69;109623;1241;62914;-80
2023/03/22 07:07:52;;;;;;;48.40;25.00;;;;;;;8.35;91.54;101149.45;109475;1245;61672;-81
2023/03/22 07:10:21;;;;;;;40.90;25.50;;;;;;;8.44;90.86;101152.77;109475;1247;59279;-82
2023/03/22 07:12:50;;;;;;;45.30;25.90;;;;;;;8.47;90.45;101156.78;109582;1241;64203;-78
2023/03/22 07:15:23;;;;;;;41.50;24.10;;;;;;;8.43;90.80;101155.27;109556;1245;61885;-80
2023/03/22 07:18:00;;;;;;;45.70;25.80;;;;;;;8.35;91.57;101150.38;109623;1241;57044;-82
2023/03/22 07:20:31;;;;;;;42.30;25.40;;;;;;;8.19;93.41;101147.05;109452;1241;70781;-82
2023/03/22 07:23:00;;;;;;;49.70;28.50;;;;;;;8.26;93.54;101141.97;109393;1241;61848;-84
2023/03/22 07:25:31;;;;;;;45.50;26.30;;;;;;;8.50;93.48;101142.20;109349;1241;70549;-81
2023/03/22 07:28:14;;;;;;;41.20;23.10;;;;;;;8.88;91.56;101143.18;109469;1241;73478;-79
2023/03/22 07:30:43;;;;;;;44.90;24.20;;;;;;;9.03;90.50;101145.95;109159;1241;374508;-83
2023/03/22 07:33:12;;;;;;;39.60;24.70;;;;;;;9.01;90.32;101145.15;109582;1241;60615;-79
2023/03/22 07:35:41;;;;;;;44.40;25.10;;;;;;;9.02;90.50;101144.74;109515;1241;74052;-84
2023/03/22 07:38:10;;;;;;;43.60;24.30;;;;;;;9.06;90.44;101143.85;109718;1241;72501;-80
2023/03/22 07:40:39;;;;;;;48.00;26.10;;;;;;;9.00;90.56;101145.02;109663;1241;60390;-81
2023/03/22 07:43:10;;;;;;;42.30;24.90;;;;;;;9.06;90.65;101144.86;109626;1245;63404;-81
2023/03/22 07:45:52;;;;;;;48.50;27.20;;;;;;;9.15;90.65;101139.66;109582;1243;62982;-79
2023/03/22 07:48:39;;;;;;;42.30;24.80;;;;;;;9.17;91.21;101134.83;109603;1241;57673;-82
2023/03/22 07:51:26;;;;;;;44.10;26.30;;;;;;;9.17;91.51;101135.38;109543;1241;72763;-77
2023/03/22 07:53:55;;;;;;;46.70;26.50;;;;;;;9.25;92.32;101134.85;109488;1241;63279;-80
2023/03/22 07:56:24;;;;;;;45.00;25.10;;;;;;;9.45;92.07;101134.02;109360;1241;59069;-78
2023/03/22 07:58:53;;;;;;;40.00;21.70;;;;;;;9.75;90.72;101136.50;109456;1241;62422;-84
2023/03/22 08:01:23;;;;;;;42.60;26.20;;;;;;;9.90;89.87;101135.59;109456;1245;60743;-79
2023/03/22 08:04:03;;;;;;;51.10;29.50;;;;;;;9.93;89.90;101131.60;109287;1241;60467;-81
2023/03/22 08:06:48;;;;;;;50.90;27.20;;;;;;;10.08;89.59;101130.77;109488;1241;62805;-80
2023/03/22 08:09:17;;;;;;;47.40;27.90;;;;;;;10.28;88.80;101126.40;109468;1241;61687;-80
2023/03/22 08:11:46;;;;;;;43.00;26.20;;;;;;;10.45;87.65;101126.55;109604;1245;59217;-79
2023/03/22 08:14:15;;;;;;;49.90;27.90;;;;;;;10.44;87.50;101128.13;109528;1241;73149;-81
2023/03/22 08:16:49;;;;;;;54.30;31.90;;;;;;;10.66;87.26;101123.25;109428;1245;57873;-80
2023/03/22 08:19:18;;;;;;;48.20;30.50;;;;;;;10.73;86.76;101121.23;109551;1241;60413;-80
2023/03/22 08:21:47;;;;;;;51.90;30.70;;;;;;;10.93;86.42;101118.64;109495;1241;73375;-79
2023/03/22 08:24:27;;;;;;;50.70;30.40;;;;;;;11.14;85.48;101116.85;109485;1245;62173;-80
2023/03/22 08:27:05;;;;;;;49.50;30.70;;;;;;;11.21;85.20;101114.82;109636;1245;59212;-77
2023/03/22 08:29:46;;;;;;;41.20;24.40;;;;;;;11.48;84.50;101112.10;109626;1241;73883;-81
2023/03/22 08:32:16;;;;;;;48.40;29.80;;;;;;;11.73;82.65;101114.70;109491;1247;62878;-78
2023/03/22 08:34:45;;;;;;;54.20;30.50;;;;;;;11.73;82.36;101108.61;109510;1241;61503;-77
2023/03/22 08:37:14;;;;;;;47.50;29.40;;;;;;;11.80;82.32;101112.08;109783;1241;63412;-80
2023/03/22 08:39:44;;;;;;;50.40;30.90;;;;;;;11.97;81.46;101115.63;109574;1241;71460;-79
2023/03/22 08:42:26;;;;;;;52.10;33.30;;;;;;;12.06;81.83;101115.32;109695;1241;70845;-77
2023/03/22 08:44:54;;;;;;;57.70;34.60;;;;;;;12.29;80.31;101115.01;109709;1241;73730;-78
2023/03/22 08:47:24;;;;;;;51.10;30.40;;;;;;;12.39;79.79;101109.62;109723;1245;57313;-80
2023/03/22 08:49:56;;;;;;;47.90;28.40;;;;;;;12.51;78.46;101109.23;109672;1241;61225;-81
2023/03/22 08:52:34;;;;;;;51.60;30.00;;;;;;;12.51;78.37;101106.95;109696;1241;73928;-78
2023/03/22 08:55:08;;;;;;;;;;;;;;;12.52;78.27;101107.92;109573;1241;72651;-78
2023/03/22 08:57:57;;;;;;;49.70;29.20;;;;;;;12.54;78.34;101110.23;109741;1245;60482;-80
2023/03/22 09:00:33;;;;;;;49.90;30.10;;;;;;;12.66;78.11;101108.67;109717;1244;62775;-79
2023/03/22 09:03:40;;;;;;;49.10;31.70;;;;;;;12.80;76.78;101104.07;109605;1245;61197;-79
2023/03/22 09:06:10;;;;;;;49.80;33.00;;;;;;;13.05;76.15;101106.55;109637;1245;57743;-79
2023/03/22 09:08:40;;;;;;;45.10;29.80;;;;;;;13.26;75.12;101107.61;109663;1241;73152;-80
2023/03/22 09:11:15;;;;;;;43.50;27.10;;;;;;;13.47;73.97;101102.25;109736;1241;71943;-80
2023/03/22 09:13:48;;;;;;;48.80;31.60;;;;;;;13.55;71.92;101101.32;109532;1248;60516;-77
2023/03/22 09:16:18;;;;;;;44.20;27.40;;;;;;;13.50;72.35;101098.56;109587;1241;72788;-78
2023/03/22 09:18:47;;;;;;;62.40;38.70;;;;;;;13.73;71.25;101089.36;109471;1247;57116;-77
2023/03/22 09:21:17;;;;;;;50.10;31.70;;;;;;;13.84;70.56;101096.91;109647;1245;61233;-78
2023/03/22 09:23:57;;;;;;;49.10;32.60;;;;;;;13.80;70.52;101096.16;109739;1245;62814;-77
2023/03/22 09:26:37;;;;;;;46.60;31.00;;;;;;;13.65;70.71;101094.02;109713;1245;60952;-79
2023/03/22 09:29:06;;;;;;;46.60;31.20;;;;;;;13.81;71.53;101096.83;109560;1241;59851;-80
2023/03/22 09:31:35;;;;;;;42.30;27.10;;;;;;;14.08;70.50;101091.65;109597;1241;73908;-79
2023/03/22 09:34:11;;;;;;;49.30;31.30;;;;;;;14.04;69.54;101091.77;109629;1245;60830;-79
2023/03/22 09:36:41;;;;;;;48.40;31.70;;;;;;;13.99;69.87;101089.58;109622;1245;57142;-78
2023/03/22 09:39:10;;;;;;;40.50;26.80;;;;;;;14.40;68.91;101091.08;109567;1241;74198;-81
2023/03/22 09:41:53;;;;;;;43.40;29.10;;;;;;;14.74;67.07;101088.70;109716;1241;72310;-78
2023/03/22 09:44:40;;;;;;;46.50;31.00;;;;;;;14.68;68.09;101084.77;109779;1241;69596;-80
2023/03/22 09:47:20;;;;;;;44.40;30.40;;;;;;;14.81;67.98;101085.98;109511;1241;74401;-78
2023/03/22 09:49:59;;;;;;;44.20;29.80;;;;;;;15.02;66.10;101081.07;109566;1245;57719;-79
2023/03/22 09:52:29;;;;;;;45.90;30.60;;;;;;;14.87;66.32;101077.91;109647;1245;60608;-81
2023/03/22 09:54:58;;;;;;;45.20;31.00;;;;;;;14.93;66.90;101077.23;109680;1241;74135;-80
2023/03/22 09:57:34;;;;;;;41.40;27.10;;;;;;;15.23;65.38;101070.45;109715;1241;72744;-79
2023/03/22 10:00:44;;;;;;;42.90;30.20;;;;;;;15.37;64.49;101076.24;109673;1241;71584;-81
2023/03/22 10:03:56;;;;;;;44.40;30.20;;;;;;;15.34;65.20;101071.11;109565;1244;63569;-79
2023/03/22 10:06:26;;;;;;;44.00;29.90;;;;;;;15.48;63.39;101071.47;109683;1244;57823;-78
2023/03/22 10:09:00;;;;;;;36.30;24.20;;;;;;;15.55;63.16;101068.36;109424;1246;61107;-79
2023/03/22 10:12:07;;;;;;;39.60;26.90;;;;;;;15.72;62.72;101064.99;109701;1244;63162;-78
2023/03/22 10:14:56;;;;;;;42.30;28.70;;;;;;;16.05;62.36;101065.54;109604;1241;72192;-77
2023/03/22 10:17:28;;;;;;;35.30;25.80;;;;;;;16.22;60.08;101060.30;109638;1241;67781;-80
2023/03/22 10:20:18;;;;;;;40.50;25.60;;;;;;;16.31;58.62;101061.63;109606;1245;71975;-79
2023/03/22 10:22:48;;;;;;;37.10;25.30;;;;;;;16.06;60.16;101057.23;109500;1245;60800;-81
2023/03/22 10:25:27;;;;;;;38.50;26.10;;;;;;;16.22;59.61;101053.47;109683;1244;57651;-78
2023/03/22 10:27:56;;;;;;;30.10;20.40;;;;;;;16.42;57.84;101054.83;109570;1246;72668;-79
2023/03/22 10:30:35;;;;;;;41.00;26.50;;;;;;;16.33;57.94;101054.27;109539;1245;61450;-79
2023/03/22 10:33:24;;;;;;;41.20;25.80;;;;;;;16.59;57.22;101050.06;109281;1241;70624;-79
2023/03/22 10:35:54;;;;;;;39.70;26.60;;;;;;;16.79;56.52;101048.76;109457;1241;73681;-79
2023/03/22 10:38:27;;;;;;;41.50;28.40;;;;;;;16.87;57.49;101046.98;109321;1248;57753;-78
2023/03/22 10:40:59;;;;;;;39.90;27.80;;;;;;;17.17;55.31;101046.30;109456;1241;61236;-79
2023/03/22 10:43:40;;;;;;;36.70;25.00;;;;;;;17.41;54.70;101042.20;109458;1245;74097;-82
2023/03/22 10:46:19;;;;;;;35.80;24.90;;;;;;;17.87;53.14;101040.40;109450;1245;72022;-80
2023/03/22 10:48:53;;;;;;;33.70;26.10;;;;;;;18.49;49.88;101037.41;109502;1242;59592;-79
2023/03/22 10:51:44;;;;;;;43.80;30.10;;;;;;;18.49;49.69;101030.39;109558;1242;62449;-80
2023/03/22 10:54:16;;;;;;;36.10;27.10;;;;;;;18.17;50.28;101029.48;109391;1246;59610;-79
2023/03/22 10:56:44;;;;;;;38.10;26.80;;;;;;;18.47;50.28;101024.72;109618;1245;60858;-78
2023/03/22 10:59:50;;;;;;;36.70;27.30;;;;;;;18.37;49.20;101022.08;109690;1241;64387;-77
2023/03/22 11:02:29;;;;;;;32.50;25.60;;;;;;;18.63;48.59;101020.62;109726;1244;60930;-79
2023/03/22 11:05:04;;;;;;;36.60;26.40;;;;;;;19.04;48.43;101022.71;109627;1243;70424;-79
2023/03/22 11:07:42;;;;;;;37.80;26.40;;;;;;;18.46;48.18;101017.09;109634;1244;63886;-81
2023/03/22 11:10:22;;;;;;;34.90;26.10;;;;;;;18.17;48.71;101015.73;109532;1245;60188;-80
2023/03/22 11:13:12;;;;;;;30.20;24.30;;;;;;;18.18;48.29;101018.32;109483;1241;57205;-79
2023/03/22 11:15:54;;;;;;;94.80;55.70;;;;;;;18.13;47.82;101017.61;109346;1241;73005;-80
2023/03/22 11:18:28;;;;;;;39.30;29.00;;;;;;;18.07;47.77;101013.23;109469;1242;72564;-78
2023/03/22 11:21:06;;;;;;;32.10;24.60;;;;;;;18.18;47.53;101010.38;109468;1241;71333;-80
2023/03/22 11:23:37;;;;;;;29.80;23.10;;;;;;;18.26;48.00;101014.52;109215;1242;74451;-82
2023/03/22 11:26:13;;;;;;;33.40;23.90;;;;;;;18.19;48.04;101012.61;109436;1245;57687;-79
2023/03/22 11:28:50;;;;;;;30.70;23.60;;;;;;;17.92;48.11;101009.07;109302;1241;57737;-80
2023/03/22 11:31:20;;;;;;;29.90;23.00;;;;;;;17.84;48.14;101008.10;109431;1241;63680;-81
2023/03/22 11:33:56;;;;;;;32.30;24.00;;;;;;;17.70;48.30;101008.07;109271;1244;72173;-80
2023/03/22 11:36:27;;;;;;;30.50;23.40;;;;;;;17.79;48.35;101008.11;109421;1242;59718;-82
2023/03/22 11:39:06;;;;;;;32.30;22.70;;;;;;;17.75;48.11;101003.94;109201;1242;72727;-80
2023/03/22 11:41:38;;;;;;;28.90;21.70;;;;;;;17.75;48.44;101005.66;109230;1245;60953;-81
2023/03/22 11:44:16;;;;;;;31.50;23.70;;;;;;;18.16;48.45;100999.85;109374;1245;60449;-81
2023/03/22 11:46:59;;;;;;;36.70;24.30;;;;;;;18.60;46.89;100997.23;109397;1241;74012;-80
2023/03/22 11:49:46;;;;;;;32.10;23.20;;;;;;;19.22;46.33;100991.67;109413;1241;72756;-78
2023/03/22 11:52:25;;;;;;;29.70;23.60;;;;;;;19.56;44.54;100989.20;109481;1241;60316;-79